Eftichia — C6ZI4 — position and weather

sailwx.info

Track history (hours):
 
Tides and Currents Weather Stations Pressure Air Temp Water Temp Dewpoint Dewpoint Depression Visibility Wind Speed Wind Dir Waves Ship Positions

Eftichia

Last reported at 2014-Jul-03 18:29 UTC. Time now 2014-Jul-30 23:21 UTC.
Position S 34°30' E 017°49'.
Warning: this ship's position is 27 days out of date.

Length 181 m; draft 9.9 m.

Type: Ship. MMSI: 311056400.

Date/timePositionNaut miles runAvg speedWind from/ knotsBaromVisibWave heightAir tempDewpointWater temp
2014-Jul-03 18:29S 34°30' E 017°49'27 9.3
2014-Jul-03 15:33S 34°37' E 018°22'9 8.5
2014-Jul-03 14:28S 34°40' E 018°32'9 8.8
2014-Jul-03 13:29S 34°41' E 018°43'13 9.3
2014-Jul-03 12:06S 34°45' E 018°58'5 8.9
2014-Jul-03 11:31S 34°46' E 019°04'27 9.0
2014-Jul-03 08:32S 34°54' E 019°35'2010.0
2014-Jul-03 06:32S 34°58' E 019°59'1510.1
2014-Jul-03 05:04S 34°59' E 020°17'21810.0
2014-Jul-02 07:19S 34°25' E 024°38'910.0
2014-Jul-02 06:26S 34°23' E 024°49'9 9.5
2014-Jul-02 05:29S 34°21' E 024°60'9 9.4
2014-Jul-02 04:33S 34°19' E 025°10'10410.3
2014-Jul-01 18:30S 33°47' E 027°09'1111.0
2014-Jul-01 17:28S 33°41' E 027°21'4212.7
2014-Jul-01 14:09S 33°18' E 028°03'10213.3
2014-Jul-01 06:30S 32°15' E 029°38'1513.6
2014-Jul-01 05:23S 32°06' E 029°52'2512.4
2014-Jul-01 03:24S 31°54' E 030°17'1012.1
2014-Jul-01 02:33S 31°50' E 030°29'1212.2
2014-Jul-01 01:33S 31°46' E 030°42'1211.9
2014-Jul-01 00:33S 31°41' E 030°55'1312.1
2014-Jun-30 23:27S 31°36' E 031°09'1011.6
2014-Jun-30 22:33S 31°32' E 031°21'1111.3
2014-Jun-30 21:33S 31°28' E 031°33'1311.3
2014-Jun-30 20:25S 31°23' E 031°47'911.0
2014-Jun-30 19:33S 31°19' E 031°57'1110.9
2014-Jun-30 18:33S 31°15' E 032°09'1110.7
2014-Jun-30 17:31S 31°11' E 032°21'1311.0
2014-Jun-30 16:21S 31°06' E 032°35'1010.2
2014-Jun-30 15:25S 31°03' E 032°45'910.4
2014-Jun-30 14:33S 30°59' E 032°55'  
Track history (hours):
 
Tides and Currents Weather Stations Pressure Air Temp Water Temp Dewpoint Dewpoint Depression Visibility Wind Speed Wind Dir Waves Ship Positions

Eftichia

Last reported at 2014-Jul-03 18:29 UTC. Time now 2014-Jul-30 23:21 UTC.
Position S 34°30' E 017°49'.
Warning: this ship's position is 27 days out of date.

Length 181 m; draft 9.9 m.

Type: Ship. MMSI: 311056400.

Date/timePositionNaut miles runAvg speedWind from/ knotsBaromVisibWave heightAir tempDewpointWater temp
2014-Jul-03 18:29S 34°30' E 017°49'27 9.3
2014-Jul-03 15:33S 34°37' E 018°22'9 8.5
2014-Jul-03 14:28S 34°40' E 018°32'9 8.8
2014-Jul-03 13:29S 34°41' E 018°43'13 9.3
2014-Jul-03 12:06S 34°45' E 018°58'5 8.9
2014-Jul-03 11:31S 34°46' E 019°04'27 9.0
2014-Jul-03 08:32S 34°54' E 019°35'2010.0
2014-Jul-03 06:32S 34°58' E 019°59'1510.1
2014-Jul-03 05:04S 34°59' E 020°17'21810.0
2014-Jul-02 07:19S 34°25' E 024°38'910.0
2014-Jul-02 06:26S 34°23' E 024°49'9 9.5
2014-Jul-02 05:29S 34°21' E 024°60'9 9.4
2014-Jul-02 04:33S 34°19' E 025°10'10410.3
2014-Jul-01 18:30S 33°47' E 027°09'1111.0
2014-Jul-01 17:28S 33°41' E 027°21'4212.7
2014-Jul-01 14:09S 33°18' E 028°03'10213.3
2014-Jul-01 06:30S 32°15' E 029°38'1513.6
2014-Jul-01 05:23S 32°06' E 029°52'2512.4
2014-Jul-01 03:24S 31°54' E 030°17'1012.1
2014-Jul-01 02:33S 31°50' E 030°29'1212.2
2014-Jul-01 01:33S 31°46' E 030°42'1211.9
2014-Jul-01 00:33S 31°41' E 030°55'1312.1
2014-Jun-30 23:27S 31°36' E 031°09'1011.6
2014-Jun-30 22:33S 31°32' E 031°21'1111.3
2014-Jun-30 21:33S 31°28' E 031°33'1311.3
2014-Jun-30 20:25S 31°23' E 031°47'911.0
2014-Jun-30 19:33S 31°19' E 031°57'1110.9
2014-Jun-30 18:33S 31°15' E 032°09'1110.7
2014-Jun-30 17:31S 31°11' E 032°21'1311.0
2014-Jun-30 16:21S 31°06' E 032°35'1010.2
2014-Jun-30 15:25S 31°03' E 032°45'910.4
2014-Jun-30 14:33S 30°59' E 032°55'  

Dump ship's entire track history